Time;durP1;ratioP1;P1;durP2;ratioP2;P2;SDS_P1;SDS_P2;PMS_P1;PMS_P2;Temp;Humidity;BMP_temperature;BMP_pressure;BME280_temperature;BME280_humidity;BME280_pressure;Samples;Min_cycle;Max_cycle;Signal;HPM_P1;HPM_P2
2021/09/24 00:00:28;;;;;;;9.35;6.75;;;18.00;99.90;;;;;;2067965;28;20073;-71
2021/09/24 00:01:29;;;;;;;9.40;7.07;;;18.00;99.90;;;;;;2064219;28;20077;-71
2021/09/24 00:02:29;;;;;;;10.88;8.15;;;18.00;99.90;;;;;;2064160;28;20030;-71
2021/09/24 00:03:30;;;;;;;8.48;7.40;;;18.00;99.90;;;;;;2064047;28;20015;-71
2021/09/24 00:04:32;;;;;;;9.98;6.57;;;18.00;99.90;;;;;;2063506;28;20438;-71
2021/09/24 00:05:33;;;;;;;9.82;7.63;;;18.00;99.90;;;;;;2063809;28;20356;-71
2021/09/24 00:06:33;;;;;;;10.35;7.78;;;18.00;99.90;;;;;;2064198;28;20173;-71
2021/09/24 00:07:34;;;;;;;12.48;8.75;;;18.00;99.90;;;;;;2065327;28;20494;-71
2021/09/24 00:08:34;;;;;;;8.27;7.07;;;18.00;99.90;;;;;;2071892;28;20033;-71
2021/09/24 00:09:35;;;;;;;9.95;5.72;;;18.00;99.90;;;;;;2072683;28;20447;-71
2021/09/24 00:10:36;;;;;;;10.18;7.82;;;18.00;99.90;;;;;;2065225;28;20027;-71
2021/09/24 00:11:38;;;;;;;12.35;8.00;;;18.00;99.90;;;;;;2064094;28;20027;-71
2021/09/24 00:12:39;;;;;;;8.57;7.20;;;18.00;99.90;;;;;;2064161;28;20026;-71
2021/09/24 00:13:40;;;;;;;11.75;8.63;;;18.00;99.90;;;;;;2064332;28;20030;-71
2021/09/24 00:14:41;;;;;;;12.50;8.40;;;18.00;99.90;;;;;;2064283;28;20027;-71
2021/09/24 00:15:42;;;;;;;10.90;8.32;;;18.00;99.90;;;;;;2064308;28;20041;-71
2021/09/24 00:16:42;;;;;;;10.45;7.78;;;18.00;99.90;;;;;;2064129;28;20030;-71
2021/09/24 00:17:43;;;;;;;11.38;8.32;;;18.00;99.90;;;;;;2066006;28;20030;-71
2021/09/24 00:18:44;;;;;;;11.48;7.60;;;18.00;99.90;;;;;;2071526;28;20022;-71
2021/09/24 00:19:45;;;;;;;8.40;7.60;;;18.00;99.90;;;;;;2069517;28;20493;-71
2021/09/24 00:20:45;;;;;;;10.43;8.80;;;18.00;99.90;;;;;;2064255;28;20379;-71
2021/09/24 00:21:46;;;;;;;12.98;9.27;;;18.00;99.90;;;;;;2063902;28;20026;-71
2021/09/24 00:22:47;;;;;;;12.30;8.38;;;18.00;99.90;;;;;;2064087;28;20034;-71
2021/09/24 00:23:48;;;;;;;10.13;8.68;;;18.00;99.90;;;;;;2064170;28;20026;-71
2021/09/24 00:24:48;;;;;;;11.82;8.27;;;18.00;99.90;;;;;;2064292;28;20158;-71
2021/09/24 00:25:49;;;;;;;11.80;8.18;;;18.00;99.90;;;;;;2063805;28;20034;-71
2021/09/24 00:26:49;;;;;;;9.80;7.43;;;18.00;99.90;;;;;;2064060;28;20034;-71
2021/09/24 00:27:50;;;;;;;12.30;9.65;;;18.00;99.90;;;;;;2066538;28;20030;-71
2021/09/24 00:28:51;;;;;;;7.88;6.88;;;18.00;99.90;;;;;;2071744;28;20368;-71
2021/09/24 00:29:51;;;;;;;11.70;8.75;;;18.00;99.90;;;;;;2067084;28;20387;-71
2021/09/24 00:30:52;;;;;;;10.45;8.48;;;18.00;99.90;;;;;;2064245;28;20026;-71
2021/09/24 00:31:53;;;;;;;13.02;8.55;;;18.00;99.90;;;;;;2063914;28;20113;-71
2021/09/24 00:32:54;;;;;;;10.32;9.32;;;18.00;99.90;;;;;;2064122;28;20462;-71
2021/09/24 00:33:54;;;;;;;14.32;10.90;;;18.00;99.90;;;;;;2064117;28;20034;-71
2021/09/24 00:34:55;;;;;;;12.93;9.35;;;18.00;99.90;;;;;;2063886;28;20033;-71
2021/09/24 00:35:55;;;;;;;13.95;9.40;;;17.90;99.90;;;;;;2063339;28;20430;-71
2021/09/24 00:36:56;;;;;;;13.38;10.15;;;17.90;99.90;;;;;;2063260;28;20152;-71
2021/09/24 00:37:57;;;;;;;14.27;10.13;;;18.00;99.90;;;;;;2067007;28;20074;-71
2021/09/24 00:38:57;;;;;;;10.43;8.45;;;18.00;99.90;;;;;;2071895;28;20052;-71
2021/09/24 00:39:58;;;;;;;13.98;10.48;;;18.00;99.90;;;;;;2064150;28;20031;-71
2021/09/24 00:40:59;;;;;;;10.82;8.82;;;18.00;99.90;;;;;;2067313;28;20026;-71
2021/09/24 00:42:00;;;;;;;14.65;9.13;;;18.00;99.90;;;;;;2072181;28;20026;-71
2021/09/24 00:43:02;;;;;;;15.80;11.05;;;17.90;99.90;;;;;;2065255;28;20034;-71
2021/09/24 00:44:03;;;;;;;14.23;9.85;;;18.00;99.90;;;;;;2063993;28;20029;-71
2021/09/24 00:45:05;;;;;;;13.65;10.45;;;18.00;99.90;;;;;;2064205;28;20037;-71
2021/09/24 00:46:05;;;;;;;12.23;10.35;;;18.00;99.90;;;;;;2063977;28;20027;-71
2021/09/24 00:47:06;;;;;;;11.63;8.95;;;18.00;99.90;;;;;;2063764;28;20029;-71
2021/09/24 00:48:07;;;;;;;16.55;11.07;;;18.00;99.90;;;;;;2068055;28;20022;-71
2021/09/24 00:49:10;;;;;;;18.42;12.98;;;18.00;99.90;;;;;;2071680;28;20378;-71
2021/09/24 00:50:10;;;;;;;13.27;9.55;;;18.00;99.90;;;;;;2071991;28;20474;-71
2021/09/24 00:51:11;;;;;;;21.25;13.02;;;18.00;99.90;;;;;;2072128;28;20949;-71
2021/09/24 00:52:12;;;;;;;14.88;11.70;;;18.00;99.90;;;;;;2071989;28;20096;-71
2021/09/24 00:53:13;;;;;;;16.30;12.98;;;18.00;99.90;;;;;;2071929;28;20044;-71
2021/09/24 00:54:14;;;;;;;17.50;12.80;;;18.00;99.90;;;;;;2072027;28;20025;-71
2021/09/24 00:55:14;;;;;;;11.23;9.18;;;18.00;99.90;;;;;;2071763;28;20909;-71
2021/09/24 00:56:16;;;;;;;17.23;12.93;;;18.00;99.90;;;;;;2072305;28;20022;-71
2021/09/24 00:57:19;;;;;;;16.80;13.82;;;18.00;99.90;;;;;;2069512;28;20110;-71
2021/09/24 00:58:19;;;;;;;15.43;11.15;;;18.00;99.90;;;;;;2065348;28;20053;-71
2021/09/24 00:59:20;;;;;;;21.48;13.45;;;18.00;99.90;;;;;;2063597;28;20033;-71
2021/09/24 01:00:21;;;;;;;18.42;14.38;;;18.00;99.90;;;;;;2063404;28;20386;-71
2021/09/24 01:01:21;;;;;;;16.88;13.70;;;18.00;99.90;;;;;;2063821;28;20459;-71
2021/09/24 01:02:25;;;;;;;19.60;14.75;;;18.00;99.90;;;;;;2062153;28;20030;-71
2021/09/24 01:03:26;;;;;;;18.38;15.60;;;18.00;99.90;;;;;;2077161;28;20064;-71
2021/09/24 01:04:27;;;;;;;18.08;15.30;;;17.90;99.90;;;;;;2071024;28;20040;-71
2021/09/24 01:05:28;;;;;;;18.25;15.10;;;18.00;99.90;;;;;;2070904;28;20036;-71
2021/09/24 01:06:28;;;;;;;19.88;14.35;;;18.00;99.90;;;;;;2072349;28;20021;-71
2021/09/24 01:07:29;;;;;;;17.73;15.32;;;17.90;99.90;;;;;;2064018;28;20053;-71
2021/09/24 01:08:31;;;;;;;19.10;15.65;;;18.00;99.90;;;;;;2067776;28;20038;-71
2021/09/24 01:09:32;;;;;;;18.67;16.20;;;17.90;99.90;;;;;;2071898;28;20095;-71
2021/09/24 01:10:33;;;;;;;19.52;16.20;;;17.90;99.90;;;;;;2065665;28;20356;-71
2021/09/24 01:11:36;;;;;;;17.83;15.18;;;18.00;99.90;;;;;;2063590;28;20040;-71
2021/09/24 01:12:37;;;;;;;18.10;14.55;;;17.90;99.90;;;;;;2063871;28;20030;-71
2021/09/24 01:13:37;;;;;;;18.95;16.73;;;17.90;99.90;;;;;;2063735;28;20034;-71
2021/09/24 01:14:38;;;;;;;19.27;16.15;;;17.90;99.90;;;;;;2063641;28;20038;-71
2021/09/24 01:15:38;;;;;;;19.73;17.63;;;17.90;99.90;;;;;;2063531;28;20025;-71
2021/09/24 01:16:39;;;;;;;20.50;17.35;;;17.90;99.90;;;;;;2063868;28;20061;-71
2021/09/24 01:17:40;;;;;;;21.42;17.55;;;18.00;99.90;;;;;;2063386;28;20093;-71
2021/09/24 01:18:41;;;;;;;18.15;15.02;;;17.90;99.90;;;;;;2068766;28;20369;-71
2021/09/24 01:19:41;;;;;;;21.42;17.42;;;17.90;99.90;;;;;;2071699;28;20120;-71
2021/09/24 01:20:42;;;;;;;21.67;18.48;;;17.90;99.90;;;;;;2071260;28;20502;-71
2021/09/24 01:21:43;;;;;;;18.55;15.95;;;17.90;99.90;;;;;;2066626;28;20037;-71
2021/09/24 01:22:43;;;;;;;19.92;15.77;;;17.90;99.90;;;;;;2063133;28;20082;-71
2021/09/24 01:23:44;;;;;;;18.92;16.92;;;18.00;99.90;;;;;;2062414;28;20034;-71
2021/09/24 01:24:45;;;;;;;19.27;17.02;;;17.90;99.90;;;;;;2071036;28;20080;-71
2021/09/24 01:25:45;;;;;;;18.90;14.73;;;18.00;99.90;;;;;;2063155;28;20042;-71
2021/09/24 01:26:48;;;;;;;20.20;17.10;;;18.00;99.90;;;;;;2070060;28;20491;-71
2021/09/24 01:27:50;;;;;;;23.20;18.13;;;17.90;99.90;;;;;;2071803;28;20037;-71
2021/09/24 01:28:51;;;;;;;19.27;16.98;;;17.90;99.90;;;;;;2071343;28;20041;-71
2021/09/24 01:29:55;;;;;;;22.25;17.50;;;17.90;99.90;;;;;;2071011;28;20087;-71
2021/09/24 01:30:55;;;;;;;18.55;14.40;;;17.90;99.90;;;;;;2063590;28;20029;-71
2021/09/24 01:31:57;;;;;;;21.27;17.90;;;17.90;99.90;;;;;;2063559;28;20038;-71
2021/09/24 01:32:57;;;;;;;18.35;16.35;;;17.90;99.90;;;;;;2062787;28;20030;-71
2021/09/24 01:33:58;;;;;;;21.70;18.00;;;17.90;99.90;;;;;;2062965;28;20041;-71
2021/09/24 01:35:00;;;;;;;17.90;16.05;;;17.90;99.90;;;;;;2063565;28;20030;-71
2021/09/24 01:36:00;;;;;;;23.25;17.08;;;17.90;99.90;;;;;;2063535;28;20030;-71
2021/09/24 01:37:01;;;;;;;18.58;16.77;;;17.90;99.90;;;;;;2063960;28;20356;-71
2021/09/24 01:38:02;;;;;;;20.67;16.35;;;18.00;99.90;;;;;;2063404;28;20034;-71
2021/09/24 01:39:05;;;;;;;20.55;17.15;;;18.00;99.90;;;;;;2071165;28;20473;-71
2021/09/24 01:40:14;;;;;;;20.58;17.63;;;18.00;99.90;;;;;;2071464;28;20092;-71
2021/09/24 01:41:14;;;;;;;19.80;17.10;;;17.90;99.90;;;;;;2066694;28;20033;-70
2021/09/24 01:42:15;;;;;;;16.60;14.27;;;17.90;99.90;;;;;;2063562;28;20049;-71
2021/09/24 01:43:15;;;;;;;19.83;17.73;;;17.90;99.90;;;;;;2063411;28;20018;-71
2021/09/24 01:44:16;;;;;;;17.77;14.32;;;18.00;99.90;;;;;;2063351;28;20038;-71
2021/09/24 01:45:17;;;;;;;19.58;15.80;;;17.90;99.90;;;;;;2063508;28;20031;-71
2021/09/24 01:46:17;;;;;;;17.92;16.05;;;18.00;99.90;;;;;;2063297;28;20054;-71
2021/09/24 01:47:19;;;;;;;17.83;15.15;;;18.00;99.90;;;;;;2063437;28;20054;-71
2021/09/24 01:48:19;;;;;;;22.65;18.17;;;18.00;99.90;;;;;;2065219;28;20042;-71
2021/09/24 01:49:20;;;;;;;21.63;17.70;;;18.00;99.90;;;;;;2071389;28;20097;-71
2021/09/24 01:50:20;;;;;;;22.02;17.52;;;18.00;99.90;;;;;;2071673;28;20557;-71
2021/09/24 01:51:21;;;;;;;16.30;14.30;;;18.00;99.90;;;;;;2071709;28;20057;-71
2021/09/24 01:52:22;;;;;;;19.92;17.00;;;18.00;99.90;;;;;;2071549;28;20049;-71
2021/09/24 01:53:22;;;;;;;23.20;17.98;;;18.00;99.90;;;;;;2070759;28;20033;-71
2021/09/24 01:54:23;;;;;;;22.45;17.30;;;18.00;99.90;;;;;;2070794;28;20437;-71
2021/09/24 01:55:23;;;;;;;24.55;16.90;;;18.00;99.90;;;;;;2071629;28;20077;-71
2021/09/24 01:56:24;;;;;;;21.25;15.98;;;18.00;99.90;;;;;;2071775;28;20558;-71
2021/09/24 01:57:25;;;;;;;19.52;16.42;;;18.00;99.90;;;;;;2069126;28;20037;-70
2021/09/24 01:58:25;;;;;;;13.52;11.02;;;18.00;99.90;;;;;;2070263;28;20038;-71
2021/09/24 01:59:26;;;;;;;15.63;12.82;;;17.90;99.90;;;;;;2070898;28;20036;-71
2021/09/24 02:00:26;;;;;;;18.10;14.15;;;18.00;99.90;;;;;;2069348;28;20038;-71
2021/09/24 02:01:27;;;;;;;19.23;16.02;;;18.00;99.90;;;;;;2063525;28;20101;-71
2021/09/24 02:02:27;;;;;;;18.67;16.20;;;17.90;99.90;;;;;;2063519;28;20050;-71
2021/09/24 02:03:28;;;;;;;25.30;17.15;;;18.00;99.90;;;;;;2063175;28;20030;-71
2021/09/24 02:04:28;;;;;;;22.25;16.48;;;18.00;99.90;;;;;;2063689;28;20034;-71
2021/09/24 02:05:29;;;;;;;17.92;15.02;;;18.00;99.90;;;;;;2063864;28;20034;-71
2021/09/24 02:06:30;;;;;;;19.88;15.93;;;18.00;99.90;;;;;;2063925;28;20032;-71
2021/09/24 02:07:31;;;;;;;21.50;16.85;;;17.90;99.90;;;;;;2063310;28;20036;-71
2021/09/24 02:08:32;;;;;;;21.52;17.38;;;18.00;99.90;;;;;;2062690;28;20538;-71
2021/09/24 02:09:33;;;;;;;19.55;16.83;;;17.90;99.90;;;;;;2063626;28;20394;-71
2021/09/24 02:10:33;;;;;;;21.98;16.73;;;18.00;99.90;;;;;;2063523;28;20117;-70
2021/09/24 02:11:34;;;;;;;21.48;16.60;;;18.00;99.90;;;;;;2063251;28;20034;-70
2021/09/24 02:12:35;;;;;;;19.50;16.30;;;17.90;99.90;;;;;;2063315;28;20430;-70
2021/09/24 02:13:35;;;;;;;18.90;15.20;;;18.00;99.90;;;;;;2063267;28;20096;-70
2021/09/24 02:14:36;;;;;;;18.67;15.60;;;18.00;99.90;;;;;;2063479;28;20483;-70
2021/09/24 02:15:37;;;;;;;24.33;15.77;;;18.00;99.90;;;;;;2066376;28;20382;-71
2021/09/24 02:16:39;;;;;;;18.63;16.33;;;18.00;99.90;;;;;;2066572;28;20396;-71
2021/09/24 02:17:39;;;;;;;19.80;16.00;;;18.00;99.90;;;;;;2063263;28;20573;-71
2021/09/24 02:18:41;;;;;;;18.83;15.45;;;18.00;99.90;;;;;;2062835;28;20463;-71
2021/09/24 02:19:42;;;;;;;20.45;16.52;;;18.00;99.90;;;;;;2063289;28;20413;-71
2021/09/24 02:20:42;;;;;;;22.55;16.92;;;18.00;99.90;;;;;;2071153;28;20022;-71
2021/09/24 02:21:43;;;;;;;19.67;15.85;;;18.00;99.90;;;;;;2070592;28;20022;-71
2021/09/24 02:22:44;;;;;;;21.23;16.95;;;17.90;99.90;;;;;;2063513;28;20117;-71
2021/09/24 02:23:45;;;;;;;22.00;15.93;;;17.90;99.90;;;;;;2063227;28;20019;-71
2021/09/24 02:24:45;;;;;;;18.80;16.05;;;17.90;99.90;;;;;;2063621;28;20034;-71
2021/09/24 02:25:46;;;;;;;20.20;17.30;;;18.00;99.90;;;;;;2065614;28;21120;-71
2021/09/24 02:26:46;;;;;;;16.85;14.60;;;17.90;99.90;;;;;;2071502;28;20088;-70
2021/09/24 02:27:47;;;;;;;15.50;12.13;;;18.00;99.90;;;;;;2070428;28;20052;-70
2021/09/24 02:28:47;;;;;;;21.27;16.67;;;17.90;99.90;;;;;;2062713;28;20030;-70
2021/09/24 02:29:48;;;;;;;18.33;15.48;;;18.00;99.90;;;;;;2062716;28;20085;-70
2021/09/24 02:30:49;;;;;;;20.23;15.82;;;18.00;99.90;;;;;;2062566;28;20034;-70
2021/09/24 02:31:49;;;;;;;20.92;16.52;;;18.00;99.90;;;;;;2063481;28;20026;-70
2021/09/24 02:32:50;;;;;;;21.70;16.48;;;18.00;99.90;;;;;;2063253;28;20022;-70
2021/09/24 02:33:50;;;;;;;17.55;14.15;;;18.00;99.90;;;;;;2063413;28;20081;-70
2021/09/24 02:34:51;;;;;;;18.05;15.60;;;18.00;99.90;;;;;;2063028;28;20030;-70
2021/09/24 02:35:51;;;;;;;21.38;16.45;;;18.00;99.90;;;;;;2066296;28;20096;-70
2021/09/24 02:36:52;;;;;;;20.70;15.77;;;18.00;99.90;;;;;;2071517;28;20129;-70
2021/09/24 02:37:52;;;;;;;16.33;13.20;;;18.00;99.90;;;;;;2067462;28;20085;-70
2021/09/24 02:38:53;;;;;;;23.27;17.05;;;18.00;99.90;;;;;;2062814;28;20022;-70
2021/09/24 02:39:54;;;;;;;17.83;14.98;;;18.00;99.90;;;;;;2063442;28;20458;-70
2021/09/24 02:40:54;;;;;;;21.33;17.83;;;18.00;99.90;;;;;;2063373;28;20054;-70
2021/09/24 02:41:55;;;;;;;18.95;15.70;;;18.00;99.90;;;;;;2063217;28;20034;-70
2021/09/24 02:42:55;;;;;;;17.98;16.05;;;18.00;99.90;;;;;;2064495;28;20434;-70
2021/09/24 02:43:56;;;;;;;20.75;16.05;;;18.00;99.90;;;;;;2065068;28;20102;-70
2021/09/24 02:44:57;;;;;;;21.30;16.15;;;18.00;99.90;;;;;;2064784;28;20030;-70
2021/09/24 02:45:57;;;;;;;20.77;17.23;;;18.00;99.90;;;;;;2069656;28;20034;-70
2021/09/24 02:46:58;;;;;;;22.70;16.27;;;18.00;99.90;;;;;;2072423;28;20092;-70
2021/09/24 02:47:58;;;;;;;20.95;15.70;;;18.00;99.90;;;;;;2072473;28;20111;-70
2021/09/24 02:48:59;;;;;;;18.88;16.02;;;18.00;99.90;;;;;;2071709;28;20629;-70
2021/09/24 02:50:00;;;;;;;18.67;16.67;;;18.00;99.90;;;;;;2072125;28;20119;-71
2021/09/24 02:51:00;;;;;;;21.15;17.08;;;18.00;99.90;;;;;;2067099;28;20355;-71
2021/09/24 02:52:04;;;;;;;20.65;17.13;;;18.00;99.90;;;;;;2065034;28;20119;-70
2021/09/24 02:53:04;;;;;;;17.88;15.85;;;18.00;99.90;;;;;;2064832;28;20023;-70
2021/09/24 02:54:05;;;;;;;23.25;16.20;;;18.00;99.90;;;;;;2064626;28;20041;-70
2021/09/24 02:55:07;;;;;;;26.63;17.70;;;18.00;99.90;;;;;;2064755;28;20475;-71
2021/09/24 02:56:08;;;;;;;18.67;14.52;;;18.00;99.90;;;;;;2065008;28;20019;-71
2021/09/24 02:57:09;;;;;;;22.50;17.35;;;18.00;99.90;;;;;;2065815;28;20081;-70
2021/09/24 02:58:09;;;;;;;20.48;16.00;;;18.00;99.90;;;;;;2072536;28;20022;-70
2021/09/24 02:59:10;;;;;;;16.15;12.70;;;18.00;99.90;;;;;;2066131;28;20032;-70
2021/09/24 03:00:11;;;;;;;16.65;14.73;;;18.00;99.90;;;;;;2065659;28;20455;-70
2021/09/24 03:01:11;;;;;;;21.60;16.02;;;17.90;99.90;;;;;;2064709;28;20018;-70
2021/09/24 03:02:12;;;;;;;18.55;15.45;;;17.90;99.90;;;;;;2064878;28;20027;-70
2021/09/24 03:03:12;;;;;;;18.98;16.95;;;18.00;99.90;;;;;;2071413;28;20045;-70
2021/09/24 03:04:13;;;;;;;22.02;16.70;;;17.90;99.90;;;;;;2064045;28;20097;-70
2021/09/24 03:05:14;;;;;;;19.80;16.27;;;17.90;99.90;;;;;;2064214;28;20034;-70
2021/09/24 03:06:14;;;;;;;18.45;16.52;;;17.90;99.90;;;;;;2069679;28;20053;-70
2021/09/24 03:07:15;;;;;;;19.20;16.17;;;17.90;99.90;;;;;;2066605;28;20434;-70
2021/09/24 03:08:16;;;;;;;18.33;15.52;;;17.90;99.90;;;;;;2063950;28;20051;-70
2021/09/24 03:09:17;;;;;;;19.02;15.77;;;17.90;99.90;;;;;;2064587;28;20085;-70
2021/09/24 03:10:18;;;;;;;19.27;16.75;;;17.90;99.90;;;;;;2064217;28;20019;-70
2021/09/24 03:11:19;;;;;;;18.95;16.98;;;17.90;99.90;;;;;;2068844;28;20455;-70
2021/09/24 03:12:19;;;;;;;15.75;13.18;;;17.90;99.90;;;;;;2071588;28;20561;-70
2021/09/24 03:13:20;;;;;;;24.75;17.63;;;17.90;99.90;;;;;;2069973;28;20014;-70
2021/09/24 03:14:20;;;;;;;21.13;15.25;;;17.90;99.90;;;;;;2068115;28;20025;-70
2021/09/24 03:15:21;;;;;;;22.73;17.35;;;17.90;99.90;;;;;;2066486;28;20024;-70
2021/09/24 03:16:21;;;;;;;20.13;17.42;;;17.90;99.90;;;;;;2070535;28;20029;-70
2021/09/24 03:17:22;;;;;;;18.98;15.40;;;17.90;99.90;;;;;;2072854;28;20018;-70
2021/09/24 03:18:23;;;;;;;24.23;17.17;;;17.90;99.90;;;;;;2067042;28;20390;-70
2021/09/24 03:19:23;;;;;;;20.67;17.38;;;17.90;99.90;;;;;;2064406;28;20033;-70
2021/09/24 03:20:24;;;;;;;24.10;17.23;;;17.90;99.90;;;;;;2064300;28;20057;-70
2021/09/24 03:21:25;;;;;;;22.33;17.95;;;17.90;99.90;;;;;;2064818;28;20019;-70
2021/09/24 03:22:26;;;;;;;25.83;18.40;;;17.90;99.90;;;;;;2064555;28;20027;-70
2021/09/24 03:23:27;;;;;;;24.02;18.33;;;17.90;99.90;;;;;;2063992;28;20029;-70
2021/09/24 03:24:27;;;;;;;19.08;17.00;;;17.90;99.90;;;;;;2064062;28;20725;-70
2021/09/24 03:25:28;;;;;;;18.75;16.80;;;17.90;99.90;;;;;;2064674;28;20030;-70
2021/09/24 03:26:28;;;;;;;19.42;17.35;;;17.90;99.90;;;;;;2070311;28;20486;-70
2021/09/24 03:27:29;;;;;;;18.33;16.40;;;17.90;99.90;;;;;;2071980;28;20040;-70
2021/09/24 03:28:30;;;;;;;20.52;16.90;;;17.90;99.90;;;;;;2071655;28;20032;-70
2021/09/24 03:29:31;;;;;;;19.88;17.58;;;17.90;99.90;;;;;;2072717;28;20034;-70
2021/09/24 03:30:31;;;;;;;21.63;17.73;;;17.90;99.90;;;;;;2072520;28;20084;-70
2021/09/24 03:31:32;;;;;;;17.95;15.57;;;17.90;99.90;;;;;;2066458;28;20034;-70
2021/09/24 03:32:33;;;;;;;22.35;17.45;;;17.90;99.90;;;;;;2064157;28;20037;-70
2021/09/24 03:33:34;;;;;;;21.75;19.33;;;17.90;99.90;;;;;;2064692;28;20375;-70
2021/09/24 03:34:34;;;;;;;22.88;19.25;;;17.90;99.90;;;;;;2064428;28;20084;-70
2021/09/24 03:35:35;;;;;;;25.38;19.30;;;17.90;99.90;;;;;;2064613;28;20022;-70
2021/09/24 03:36:36;;;;;;;17.83;15.80;;;17.90;99.90;;;;;;2068586;28;20036;-70
2021/09/24 03:37:37;;;;;;;19.92;17.83;;;17.90;99.90;;;;;;2071966;28;20064;-70
2021/09/24 03:38:37;;;;;;;24.98;19.52;;;17.90;99.90;;;;;;2072065;28;20029;-70
2021/09/24 03:39:38;;;;;;;26.40;20.92;;;17.90;99.90;;;;;;2066219;28;20031;-71
2021/09/24 03:40:40;;;;;;;24.95;21.65;;;17.90;99.90;;;;;;2064463;28;20026;-71
2021/09/24 03:41:43;;;;;;;27.83;23.25;;;17.90;99.90;;;;;;2064529;28;20031;-70
2021/09/24 03:42:43;;;;;;;21.80;19.58;;;17.90;99.90;;;;;;2064658;28;20125;-70
2021/09/24 03:43:44;;;;;;;23.98;21.20;;;17.90;99.90;;;;;;2064449;28;20095;-70
2021/09/24 03:44:44;;;;;;;27.27;21.27;;;17.90;99.90;;;;;;2064420;28;20065;-70
2021/09/24 03:45:45;;;;;;;24.33;21.17;;;17.90;99.90;;;;;;2064262;28;20030;-70
2021/09/24 03:46:46;;;;;;;22.45;20.23;;;17.90;99.90;;;;;;2072562;28;20041;-71
2021/09/24 03:47:46;;;;;;;21.52;19.27;;;17.90;99.90;;;;;;2072368;28;20149;-71
2021/09/24 03:48:47;;;;;;;25.75;22.58;;;17.90;99.90;;;;;;2071622;28;20762;-71
2021/09/24 03:49:48;;;;;;;22.70;20.27;;;17.90;99.90;;;;;;2072328;28;20050;-71
2021/09/24 03:50:48;;;;;;;24.65;21.20;;;17.90;99.90;;;;;;2072224;28;20026;-71
2021/09/24 03:51:50;;;;;;;27.70;22.73;;;17.90;99.90;;;;;;2072749;28;20057;-71
2021/09/24 03:52:52;;;;;;;21.92;19.55;;;17.90;99.90;;;;;;2072670;28;20404;-70
2021/09/24 03:53:53;;;;;;;23.88;21.17;;;17.90;99.90;;;;;;2071447;28;20034;-70
2021/09/24 03:54:53;;;;;;;23.52;21.02;;;17.90;99.90;;;;;;2071937;28;20057;-70
2021/09/24 03:55:54;;;;;;;28.05;24.77;;;17.90;99.90;;;;;;2067419;28;20073;-70
2021/09/24 03:56:55;;;;;;;27.00;23.77;;;17.90;99.90;;;;;;2071434;28;20101;-70
2021/09/24 03:57:55;;;;;;;28.42;25.52;;;17.90;99.90;;;;;;2071225;28;20362;-71
2021/09/24 03:58:56;;;;;;;31.02;27.45;;;17.90;99.90;;;;;;2067288;28;20054;-71
2021/09/24 03:59:56;;;;;;;29.33;25.92;;;17.90;99.90;;;;;;2063881;28;20371;-71
2021/09/24 04:00:57;;;;;;;30.08;26.67;;;17.90;99.90;;;;;;2064278;28;20023;-71
2021/09/24 04:01:57;;;;;;;26.33;23.42;;;17.90;99.90;;;;;;2064289;28;20033;-70
2021/09/24 04:02:58;;;;;;;30.42;25.23;;;17.90;99.90;;;;;;2064412;28;20050;-70
2021/09/24 04:03:59;;;;;;;30.95;25.77;;;17.90;99.90;;;;;;2064142;28;20529;-70
2021/09/24 04:04:59;;;;;;;29.70;26.52;;;17.90;99.90;;;;;;2064349;28;20030;-70
2021/09/24 04:06:00;;;;;;;31.95;28.52;;;17.90;99.90;;;;;;2065560;28;20101;-70
2021/09/24 04:07:00;;;;;;;31.45;28.38;;;17.90;99.90;;;;;;2072620;28;20156;-70
2021/09/24 04:08:01;;;;;;;31.70;28.38;;;17.90;99.90;;;;;;2072121;28;20478;-70
2021/09/24 04:09:01;;;;;;;32.95;27.08;;;17.90;99.90;;;;;;2064242;28;20081;-70
2021/09/24 04:10:04;;;;;;;33.28;29.58;;;17.90;99.90;;;;;;2063938;28;20117;-70
2021/09/24 04:11:05;;;;;;;34.35;30.63;;;17.90;99.90;;;;;;2064247;28;20026;-70
2021/09/24 04:12:06;;;;;;;34.97;31.27;;;17.90;99.90;;;;;;2064145;28;20453;-71
2021/09/24 04:13:06;;;;;;;33.05;29.48;;;17.90;99.90;;;;;;2064233;28;20058;-71
2021/09/24 04:14:08;;;;;;;33.50;29.90;;;17.90;99.90;;;;;;2063919;28;20022;-71
2021/09/24 04:15:09;;;;;;;29.67;26.45;;;17.90;99.90;;;;;;2064061;28;20030;-70
2021/09/24 04:16:09;;;;;;;31.92;28.70;;;17.90;99.90;;;;;;2066973;28;20037;-70
2021/09/24 04:17:10;;;;;;;34.78;31.33;;;17.90;99.90;;;;;;2064225;28;20022;-70
2021/09/24 04:18:10;;;;;;;35.35;31.75;;;17.90;99.90;;;;;;2063827;28;20022;-71
2021/09/24 04:19:11;;;;;;;36.25;32.65;;;17.90;99.90;;;;;;2067695;28;20025;-71
2021/09/24 04:20:11;;;;;;;34.83;31.33;;;17.90;99.90;;;;;;2064406;28;20427;-71
2021/09/24 04:21:12;;;;;;;36.25;31.27;;;17.90;99.90;;;;;;2068285;28;20054;-70
2021/09/24 04:22:13;;;;;;;35.83;31.55;;;17.90;99.90;;;;;;2072638;28;20040;-70
2021/09/24 04:23:14;;;;;;;36.15;31.35;;;17.90;99.90;;;;;;2067735;28;20041;-70
2021/09/24 04:24:15;;;;;;;36.13;32.38;;;17.90;99.90;;;;;;2063152;28;20019;-70
2021/09/24 04:25:15;;;;;;;35.67;31.60;;;17.90;99.90;;;;;;2063037;28;20072;-70
2021/09/24 04:26:16;;;;;;;33.60;30.20;;;17.90;99.90;;;;;;2067446;28;20026;-70
2021/09/24 04:27:17;;;;;;;35.72;31.63;;;17.90;99.90;;;;;;2072054;28;20458;-70
2021/09/24 04:28:17;;;;;;;32.05;28.67;;;17.80;99.90;;;;;;2065305;28;20010;-70
2021/09/24 04:29:18;;;;;;;37.10;30.45;;;17.90;99.90;;;;;;2064031;28;20030;-70
2021/09/24 04:30:18;;;;;;;35.85;31.98;;;17.80;99.90;;;;;;2064304;28;20026;-70
2021/09/24 04:31:19;;;;;;;36.20;32.33;;;17.80;99.90;;;;;;2063912;28;20408;-70
2021/09/24 04:32:20;;;;;;;35.65;31.83;;;17.80;99.90;;;;;;2064185;28;20034;-70
2021/09/24 04:33:20;;;;;;;37.97;31.25;;;17.80;99.90;;;;;;2064181;28;20077;-71
2021/09/24 04:34:21;;;;;;;35.38;30.40;;;17.80;99.90;;;;;;2064143;28;20102;-70
2021/09/24 04:35:24;;;;;;;33.80;30.42;;;17.80;99.90;;;;;;2063758;28;20026;-70
2021/09/24 04:36:24;;;;;;;35.75;31.77;;;17.80;99.90;;;;;;2067934;28;20038;-70
2021/09/24 04:37:25;;;;;;;37.40;32.95;;;17.80;99.90;;;;;;2071757;28;20018;-70
2021/09/24 04:38:25;;;;;;;37.40;33.40;;;17.80;99.90;;;;;;2071726;28;20092;-70
2021/09/24 04:39:26;;;;;;;40.53;33.83;;;17.80;99.90;;;;;;2067210;28;20041;-71
2021/09/24 04:40:27;;;;;;;38.10;33.35;;;17.80;99.90;;;;;;2064135;28;20470;-71
2021/09/24 04:41:28;;;;;;;38.10;32.90;;;17.80;99.90;;;;;;2064089;28;20054;-70
2021/09/24 04:42:28;;;;;;;36.75;32.83;;;17.80;99.90;;;;;;2063954;28;20105;-70
2021/09/24 04:43:30;;;;;;;41.22;33.63;;;17.80;99.90;;;;;;2063728;28;20026;-70
2021/09/24 04:44:31;;;;;;;42.45;33.28;;;17.80;99.90;;;;;;2066429;28;20022;-70
2021/09/24 04:45:31;;;;;;;42.40;34.13;;;17.80;99.90;;;;;;2070646;28;20096;-70
2021/09/24 04:46:32;;;;;;;40.13;34.20;;;17.80;99.90;;;;;;2068965;28;20030;-70
2021/09/24 04:47:32;;;;;;;39.92;35.47;;;17.70;99.90;;;;;;2071330;28;20644;-70
2021/09/24 04:48:33;;;;;;;41.28;33.90;;;17.70;99.90;;;;;;2071615;28;20492;-70
2021/09/24 04:49:34;;;;;;;41.00;34.70;;;17.80;99.90;;;;;;2071314;28;20101;-70
2021/09/24 04:50:34;;;;;;;38.30;33.90;;;17.80;99.90;;;;;;2069864;28;20470;-70
2021/09/24 04:51:35;;;;;;;45.38;36.42;;;17.70;99.90;;;;;;2063887;28;20106;-70
2021/09/24 04:52:37;;;;;;;47.10;36.00;;;17.70;99.90;;;;;;2071311;28;20030;-71
2021/09/24 04:53:37;;;;;;;41.55;34.17;;;17.80;99.90;;;;;;2076949;28;20029;-70
2021/09/24 04:54:38;;;;;;;42.67;36.55;;;17.80;99.90;;;;;;2071857;28;20116;-70
2021/09/24 04:55:39;;;;;;;46.83;38.65;;;17.80;99.90;;;;;;2068178;28;20037;-70
2021/09/24 04:56:39;;;;;;;42.05;37.25;;;17.80;99.90;;;;;;2063815;28;20379;-70
2021/09/24 04:57:40;;;;;;;42.60;36.33;;;17.80;99.90;;;;;;2068667;28;20116;-70
2021/09/24 04:58:42;;;;;;;50.30;38.13;;;17.80;99.90;;;;;;2069292;28;20386;-70
2021/09/24 04:59:43;;;;;;;45.47;37.47;;;17.80;99.90;;;;;;2064110;28;20050;-70
2021/09/24 05:00:45;;;;;;;46.95;38.80;;;17.80;99.90;;;;;;2064982;28;20034;-70
2021/09/24 05:01:46;;;;;;;49.15;38.88;;;17.70;99.90;;;;;;2063790;28;20018;-70
2021/09/24 05:02:46;;;;;;;45.65;39.67;;;17.80;99.90;;;;;;2063580;28;20037;-70
2021/09/24 05:03:47;;;;;;;51.42;41.22;;;17.80;99.90;;;;;;2066432;28;20461;-70
2021/09/24 05:04:47;;;;;;;52.17;40.72;;;17.70;99.90;;;;;;2063759;28;20368;-70
2021/09/24 05:05:48;;;;;;;54.03;43.03;;;17.80;99.90;;;;;;2068231;28;20045;-70
2021/09/24 05:06:48;;;;;;;54.53;42.42;;;17.80;99.90;;;;;;2071316;28;20026;-70
2021/09/24 05:07:50;;;;;;;52.78;41.80;;;17.80;99.90;;;;;;2070939;28;20486;-70
2021/09/24 05:08:50;;;;;;;51.72;41.28;;;17.70;99.90;;;;;;2068303;28;20033;-70